首页
METAR-TAF:

METAR-TAF

机场 :

萨尔瓦多, 萨尔瓦多

萨尔瓦多奥斯卡·阿努尔福·罗梅罗-伊-加尔达梅斯主教国际机场

纬度: 13-26N, 经度: 089-03W, 海拔: 25米

当前天气观测

该预报发布于54分钟前的13:50 UTC
风速4节,风向
温度 28°C
湿度 79%
气压 1013 hPa
能见度10公里或以上
1500米以下无云,无积雨云

METAR: MSLP 251350Z 09004KT CAVOK 28/24 Q1013 A2992 NOSIG

时间: 08:44 (14:44 UTC)

预报

该预报发布于5小时和19分钟前的09:25 UTC
预报有效从25日的 12点(UTC)到 26日的 12点(UTC)
风速6节,风向东转东北
能见度10公里或以上
少量云层高于2300英尺
从 25日的 1800点(UTC)
风速10节,风向西南
能见度10公里或以上
散云层高于2300英尺
散云层高于3300英尺, 积雨云.
几率 40% :
短暂存在
从 25日的 22点(UTC)到 26日的 01点(UTC)
能見度: 8000
雷暴, 雨
从 26日的 0100点(UTC)
风速3节,风向多变
能见度10公里或以上
散云层高于2300英尺
散云层高于3300英尺, 积雨云.
短暂存在
从 26日的 02点(UTC)到 26日的 06点(UTC)
能見度: 4000
雷暴, 雨
从 26日的 0800点(UTC)
风速4节,风向东北
能见度10公里或以上
少量云层高于2300英尺

TAF: MSLP 250925Z 2512/2612 06006KT 9999 FEW023 TX33/2518Z TN23/2612Z FM251800 22010KT 9999 SCT023 SCT033CB PROB40 TEMPO 2522/2601 8000 TSRA FM260100 VRB03KT 9999 SCT023 SCT033CB TEMPO 2602/2606 4000 TSRA FM260800 04004KT 9999 FEW023

超过4000个机场的气象观测和天气预报(METAR&TAF报告)。

可查询的气象台以黄色和红色小点在地图上表示。

将鼠标移到小点上方,可查看气象台名称。

然后点击查看天气观测和预报。

如需切换地图:点击带黑十字的绿色按钮放大地图;点击带横线的绿色按钮缩小地图;或者点击绿色箭头查看邻近地区的地图。


METAR-TAF: